createdAt,value
2018-03-14T00:00:01.237Z,72.40
2018-03-14T00:02:28.275Z,71.80
2018-03-14T00:04:55.246Z,71.90
2018-03-14T00:07:22.237Z,73.00
2018-03-14T00:09:48.487Z,73.00
2018-03-14T00:12:14.735Z,72.60
2018-03-14T00:14:41.332Z,73.20
2018-03-14T00:17:08.388Z,73.90
2018-03-14T00:19:35.377Z,73.50
2018-03-14T00:22:01.627Z,73.50
2018-03-14T00:24:27.906Z,73.00
2018-03-14T00:26:54.142Z,73.30
2018-03-14T00:29:20.420Z,73.50
2018-03-14T00:31:46.680Z,72.90
2018-03-14T00:34:12.922Z,72.80
2018-03-14T00:36:39.181Z,73.20
2018-03-14T00:39:05.458Z,73.50
2018-03-14T00:41:31.770Z,73.60
2018-03-14T00:43:59.080Z,73.40
2018-03-14T00:46:25.326Z,73.20
2018-03-14T00:48:52.340Z,74.10
2018-03-14T00:51:18.685Z,74.10
2018-03-14T00:53:44.960Z,73.60
2018-03-14T00:56:11.269Z,73.70
2018-03-14T00:58:37.580Z,73.80
2018-03-14T01:01:03.890Z,72.40
2018-03-14T01:03:30.166Z,72.30
2018-03-14T01:05:56.422Z,72.70
2018-03-14T01:08:22.697Z,72.10
2018-03-14T01:10:48.908Z,72.60
2018-03-14T01:13:36.550Z,73.80
2018-03-14T01:16:02.793Z,74.00
2018-03-14T01:18:29.092Z,73.70
2018-03-14T01:21:17.890Z,74.60
2018-03-14T01:23:50.440Z,74.30
2018-03-14T01:26:16.884Z,75.10
2018-03-14T01:28:43.266Z,74.80
2018-03-14T01:31:09.557Z,75.00
2018-03-14T01:33:35.858Z,74.70
2018-03-14T01:36:02.125Z,74.30
2018-03-14T01:38:28.360Z,74.50
2018-03-14T01:40:54.602Z,74.70
2018-03-14T01:43:20.846Z,74.50
2018-03-14T01:45:47.164Z,75.50
2018-03-14T01:48:31.029Z,75.90
2018-03-14T01:50:57.292Z,75.70
2018-03-14T01:53:27.516Z,76.00
2018-03-14T01:55:53.793Z,76.00
2018-03-14T01:58:20.022Z,76.70
2018-03-14T02:00:46.356Z,76.70
2018-03-14T02:03:12.828Z,75.80
2018-03-14T02:05:39.099Z,76.80
2018-03-14T02:08:06.168Z,75.60
2018-03-14T02:10:32.449Z,75.50
2018-03-14T02:12:58.743Z,75.80
2018-03-14T02:15:25.726Z,76.70
2018-03-14T02:17:52.021Z,76.60
2018-03-14T02:20:18.316Z,76.60
2018-03-14T02:22:59.487Z,76.20
2018-03-14T02:25:26.497Z,73.50
2018-03-14T02:27:53.542Z,74.20
2018-03-14T02:30:19.912Z,74.20
2018-03-14T02:32:46.178Z,75.70
2018-03-14T02:35:13.188Z,77.00
2018-03-14T02:37:39.478Z,76.20
2018-03-14T02:40:06.524Z,76.50
2018-03-14T02:42:33.562Z,76.90
2018-03-14T02:44:59.839Z,76.90
2018-03-14T02:47:30.518Z,78.00
2018-03-14T02:49:56.778Z,77.20
2018-03-14T02:52:23.094Z,77.10
2018-03-14T02:54:50.091Z,78.10
2018-03-14T02:57:16.377Z,78.10
2018-03-14T02:59:42.658Z,78.20
2018-03-14T03:02:08.869Z,78.80
2018-03-14T03:04:35.895Z,76.80
2018-03-14T03:07:02.211Z,76.70
2018-03-14T03:09:28.476Z,77.20
2018-03-14T03:11:54.700Z,77.70
2018-03-14T03:14:21.083Z,78.00
2018-03-14T03:16:47.345Z,78.60
2018-03-14T03:19:15.462Z,77.50
2018-03-14T03:21:41.816Z,77.50
2018-03-14T03:24:08.081Z,77.10
2018-03-14T03:26:34.438Z,76.90
2018-03-14T03:29:00.683Z,77.30
2018-03-14T03:31:26.983Z,77.40
2018-03-14T03:33:53.227Z,77.90
2018-03-14T03:36:19.473Z,78.00
2018-03-14T03:38:45.782Z,78.20
2018-03-14T03:41:12.050Z,78.40
2018-03-14T03:43:38.423Z,78.80
2018-03-14T03:46:04.669Z,78.90
2018-03-14T03:48:31.269Z,79.30
2018-03-14T03:50:57.570Z,78.30
2018-03-14T03:53:23.822Z,79.00
2018-03-14T03:55:50.800Z,78.90
2018-03-14T03:58:17.076Z,78.80
2018-03-14T04:00:43.339Z,78.60
2018-03-14T04:03:09.633Z,79.00
2018-03-14T04:05:35.914Z,79.00
2018-03-14T04:08:02.227Z,79.00
2018-03-14T04:10:28.464Z,79.30
2018-03-14T04:12:54.750Z,78.80
2018-03-14T04:15:20.976Z,78.90
2018-03-14T04:17:48.004Z,79.50
2018-03-14T04:20:14.290Z,79.40
2018-03-14T04:22:40.623Z,79.50
2018-03-14T04:25:06.879Z,79.50
2018-03-14T04:27:33.285Z,79.90
2018-03-14T04:29:59.509Z,80.20
2018-03-14T04:32:25.786Z,80.20
2018-03-14T04:34:52.808Z,80.30
2018-03-14T04:37:19.012Z,80.30
2018-03-14T04:39:45.260Z,80.30
2018-03-14T04:42:20.031Z,79.70
2018-03-14T04:44:46.272Z,79.50
2018-03-14T04:47:12.544Z,79.40
2018-03-14T04:49:38.835Z,78.80
2018-03-14T04:52:05.908Z,79.80
2018-03-14T04:54:41.365Z,79.40
2018-03-14T04:57:08.355Z,79.10
2018-03-14T04:59:34.604Z,79.10
2018-03-14T05:02:00.851Z,79.40
2018-03-14T05:04:48.405Z,79.40
2018-03-14T05:07:14.663Z,79.80
2018-03-14T05:09:41.013Z,79.30
2018-03-14T05:12:07.465Z,79.20
2018-03-14T05:14:34.446Z,79.40
2018-03-14T05:17:00.677Z,79.40
2018-03-14T05:19:27.739Z,79.40
2018-03-14T05:21:54.713Z,79.20
2018-03-14T05:24:20.909Z,79.30
2018-03-14T05:26:47.200Z,79.60
2018-03-14T05:29:14.153Z,79.30
2018-03-14T05:31:54.038Z,79.30
2018-03-14T05:34:20.274Z,79.60
2018-03-14T05:36:47.653Z,79.20
2018-03-14T05:39:13.893Z,79.30
2018-03-14T05:41:40.136Z,79.30
2018-03-14T05:44:06.484Z,79.20
2018-03-14T05:46:32.730Z,79.30
2018-03-14T05:48:59.979Z,79.60
2018-03-14T05:51:26.280Z,79.40
2018-03-14T05:53:53.248Z,79.20
2018-03-14T05:56:19.516Z,79.20
2018-03-14T05:58:45.760Z,79.50
2018-03-14T06:01:17.875Z,79.30
2018-03-14T06:03:44.135Z,79.40
2018-03-14T06:06:10.410Z,79.90
2018-03-14T06:08:36.704Z,79.90
2018-03-14T06:11:02.961Z,79.00
2018-03-14T06:13:29.975Z,78.70
2018-03-14T06:15:56.204Z,78.60
2018-03-14T06:18:22.457Z,78.50
2018-03-14T06:20:48.688Z,78.60
2018-03-14T06:23:14.960Z,78.70
2018-03-14T06:25:41.479Z,79.40
2018-03-14T06:28:07.888Z,79.40
2018-03-14T06:30:42.692Z,78.60
2018-03-14T06:33:08.961Z,78.60
2018-03-14T06:35:38.152Z,79.40
2018-03-14T06:38:04.443Z,79.40
2018-03-14T06:40:30.796Z,79.40
2018-03-14T06:43:07.061Z,79.40
2018-03-14T06:45:40.726Z,79.90
2018-03-14T06:48:07.072Z,79.90
2018-03-14T06:50:33.298Z,79.80
2018-03-14T06:52:59.556Z,79.60
2018-03-14T06:55:36.329Z,79.40
2018-03-14T06:58:02.633Z,79.80
2018-03-14T07:00:41.262Z,79.80
2018-03-14T07:03:19.749Z,79.70
2018-03-14T07:05:59.799Z,79.30
2018-03-14T07:08:26.070Z,79.30
2018-03-14T07:10:52.340Z,79.20
2018-03-14T07:13:18.626Z,79.50
2018-03-14T07:15:45.032Z,79.00
2018-03-14T07:18:11.282Z,78.80
2018-03-14T07:20:37.530Z,78.90
2018-03-14T07:23:12.381Z,78.90
2018-03-14T07:25:38.617Z,79.10
2018-03-14T07:28:08.783Z,78.30
2018-03-14T07:30:43.526Z,78.30
2018-03-14T07:33:09.858Z,77.90
2018-03-14T07:35:36.081Z,77.90
2018-03-14T07:38:02.362Z,78.50
2018-03-14T07:40:28.674Z,79.30
2018-03-14T07:42:55.266Z,79.50
2018-03-14T07:45:22.221Z,78.80
2018-03-14T07:47:49.262Z,79.20
2018-03-14T07:50:15.560Z,79.20
2018-03-14T07:52:41.896Z,79.20
2018-03-14T07:55:08.891Z,77.90
2018-03-14T07:57:35.158Z,77.80
2018-03-14T08:00:01.414Z,77.60
2018-03-14T08:02:28.422Z,77.20
2018-03-14T08:04:54.677Z,77.10
2018-03-14T08:07:20.926Z,77.40
2018-03-14T08:09:50.608Z,77.00
2018-03-14T08:12:17.940Z,76.40
2018-03-14T08:14:44.936Z,75.70
2018-03-14T08:17:11.297Z,75.70
2018-03-14T08:19:37.569Z,76.30
2018-03-14T08:22:03.895Z,75.90
2018-03-14T08:24:33.700Z,75.70
2018-03-14T08:26:59.985Z,75.20
2018-03-14T08:29:26.302Z,75.50
2018-03-14T08:31:52.730Z,74.50
2018-03-14T08:34:18.975Z,74.50
2018-03-14T08:36:45.287Z,74.90
2018-03-14T08:39:12.587Z,75.10
2018-03-14T08:41:39.002Z,75.20
2018-03-14T08:44:15.285Z,74.90
2018-03-14T08:46:41.577Z,74.70
2018-03-14T08:49:07.859Z,75.00
2018-03-14T08:51:34.155Z,75.10
2018-03-14T08:54:00.496Z,75.50
2018-03-14T08:56:26.756Z,75.20
2018-03-14T08:58:53.043Z,74.90
2018-03-14T09:01:19.536Z,74.50
2018-03-14T09:03:45.999Z,73.30
2018-03-14T09:06:13.097Z,73.70
2018-03-14T09:08:39.623Z,73.00
2018-03-14T09:11:06.061Z,73.20
2018-03-14T09:13:32.561Z,74.90
2018-03-14T09:15:59.847Z,74.70
2018-03-14T09:18:27.059Z,72.60
2018-03-14T09:20:53.324Z,73.20
2018-03-14T09:23:19.931Z,73.90
2018-03-14T09:25:46.533Z,73.70
2018-03-14T09:28:13.084Z,73.10
2018-03-14T09:30:39.576Z,72.90
2018-03-14T09:33:06.034Z,73.00
2018-03-14T09:35:32.533Z,73.90
2018-03-14T09:37:59.893Z,71.40
2018-03-14T09:40:26.221Z,71.40
2018-03-14T09:42:52.830Z,71.50
2018-03-14T09:45:19.961Z,71.30
2018-03-14T09:47:46.206Z,71.30
2018-03-14T09:50:12.572Z,72.70
2018-03-14T09:52:39.549Z,71.20
2018-03-14T09:55:06.598Z,72.00
2018-03-14T09:57:33.615Z,72.40
2018-03-14T09:59:59.882Z,72.30
2018-03-14T10:02:26.121Z,72.10
2018-03-14T10:04:52.372Z,70.80
2018-03-14T10:07:18.577Z,70.80
2018-03-14T10:09:45.011Z,70.80
2018-03-14T10:12:11.277Z,69.70
2018-03-14T10:14:37.530Z,69.30
2018-03-14T10:17:03.902Z,69.80
2018-03-14T10:19:30.184Z,70.40
2018-03-14T10:21:56.621Z,71.70
2018-03-14T10:24:22.956Z,71.20
2018-03-14T10:26:49.221Z,70.10
2018-03-14T10:29:15.566Z,69.40
2018-03-14T10:31:41.895Z,70.70
2018-03-14T10:34:10.155Z,70.20
2018-03-14T10:36:36.566Z,69.90
2018-03-14T10:39:02.992Z,70.10
2018-03-14T10:41:29.418Z,70.80
2018-03-14T10:43:55.756Z,72.60
2018-03-14T10:46:22.103Z,71.10
2018-03-14T10:48:48.474Z,70.00
2018-03-14T10:51:15.001Z,70.00
2018-03-14T10:53:41.591Z,70.10
2018-03-14T10:56:08.265Z,70.60
2018-03-14T10:58:34.605Z,71.60
2018-03-14T11:01:07.163Z,71.30
2018-03-14T11:03:35.454Z,71.80
2018-03-14T11:06:01.903Z,73.00
2018-03-14T11:08:28.220Z,73.60
2018-03-14T11:10:58.934Z,72.30
2018-03-14T11:13:25.325Z,72.20
2018-03-14T11:15:51.928Z,73.20
2018-03-14T11:18:25.034Z,71.60
2018-03-14T11:20:51.394Z,72.60
2018-03-14T11:23:18.062Z,73.00
2018-03-14T11:25:44.567Z,72.30
2018-03-14T11:28:11.052Z,72.50
2018-03-14T11:30:37.613Z,72.50
2018-03-14T11:33:04.089Z,72.50
2018-03-14T11:35:31.173Z,72.60
2018-03-14T11:37:57.510Z,72.50
2018-03-14T11:40:27.680Z,72.00
2018-03-14T11:42:54.027Z,72.90
2018-03-14T11:45:20.406Z,71.70
2018-03-14T11:47:46.709Z,72.50
2018-03-14T11:50:13.214Z,72.90
2018-03-14T11:52:40.221Z,73.40
2018-03-14T11:55:06.516Z,73.30
2018-03-14T11:57:32.782Z,72.00
2018-03-14T11:59:59.106Z,72.50
2018-03-14T12:02:25.383Z,73.00
2018-03-14T12:04:51.713Z,73.80
2018-03-14T12:07:25.484Z,70.00
2018-03-14T12:09:51.885Z,70.60
2018-03-14T12:12:20.399Z,71.30
2018-03-14T12:14:46.687Z,70.80
2018-03-14T12:17:13.669Z,71.70
2018-03-14T12:19:40.201Z,71.70
2018-03-14T12:22:13.206Z,70.80
2018-03-14T12:24:39.746Z,69.10
2018-03-14T12:27:06.195Z,70.40
2018-03-14T12:29:32.524Z,70.20
2018-03-14T12:32:00.619Z,70.60
2018-03-14T12:34:27.637Z,69.20
2018-03-14T12:36:54.006Z,69.20
2018-03-14T12:39:21.056Z,67.90
2018-03-14T12:41:54.167Z,67.90
2018-03-14T12:44:25.602Z,69.00
2018-03-14T12:46:52.921Z,67.50
2018-03-14T12:49:19.198Z,65.30
2018-03-14T12:51:45.509Z,64.70
2018-03-14T12:54:11.942Z,65.30
2018-03-14T12:56:38.652Z,63.60
2018-03-14T12:59:05.799Z,63.50
2018-03-14T13:01:32.314Z,63.50
2018-03-14T13:03:58.698Z,63.90
2018-03-14T13:06:25.081Z,62.90
2018-03-14T13:08:52.126Z,62.60
2018-03-14T13:11:18.472Z,62.60
2018-03-14T13:13:47.884Z,64.10
2018-03-14T13:16:14.299Z,64.20
2018-03-14T13:18:40.764Z,64.60
2018-03-14T13:21:08.158Z,62.60
2018-03-14T13:23:35.283Z,62.50
2018-03-14T13:26:02.355Z,62.00
2018-03-14T13:28:33.915Z,61.30
2018-03-14T13:31:00.315Z,62.60
2018-03-14T13:33:28.746Z,63.60
2018-03-14T13:35:55.122Z,63.20
2018-03-14T13:38:21.439Z,65.20
2018-03-14T13:40:47.890Z,62.90
2018-03-14T13:43:14.182Z,63.10
2018-03-14T13:45:40.654Z,63.30
2018-03-14T13:48:08.600Z,63.50
2018-03-14T13:50:35.005Z,64.40
2018-03-14T13:53:01.367Z,64.70
2018-03-14T13:55:27.790Z,63.40
2018-03-14T13:57:54.847Z,62.20
2018-03-14T14:00:21.177Z,62.20
2018-03-14T14:02:56.652Z,62.50
2018-03-14T14:05:22.944Z,61.70
2018-03-14T14:07:49.182Z,62.30
2018-03-14T14:10:16.303Z,60.80
2018-03-14T14:12:42.886Z,60.80
2018-03-14T14:15:10.415Z,60.00
2018-03-14T14:17:38.677Z,58.90
2018-03-14T14:20:05.012Z,58.90
2018-03-14T14:22:32.087Z,59.30
2018-03-14T14:24:58.522Z,59.30
2018-03-14T14:27:25.709Z,60.30
2018-03-14T14:29:51.996Z,59.60
2018-03-14T14:32:18.330Z,59.80
2018-03-14T14:34:44.636Z,59.90
2018-03-14T14:37:10.929Z,59.50
2018-03-14T14:39:37.985Z,60.20
2018-03-14T14:42:05.006Z,62.30
2018-03-14T14:44:31.351Z,62.30
2018-03-14T14:46:57.776Z,63.60
2018-03-14T14:49:30.276Z,63.10
2018-03-14T14:51:56.675Z,64.20
2018-03-14T14:54:23.654Z,62.90
2018-03-14T14:56:49.919Z,62.90
2018-03-14T14:59:16.171Z,60.30
2018-03-14T15:01:43.415Z,62.50
2018-03-14T15:04:09.763Z,62.40
2018-03-14T15:06:36.081Z,63.90
2018-03-14T15:09:02.378Z,63.50
2018-03-14T15:11:28.666Z,66.60
2018-03-14T15:13:54.975Z,64.40
2018-03-14T15:16:21.974Z,65.80
2018-03-14T15:18:48.259Z,65.80
2018-03-14T15:21:14.588Z,64.70
2018-03-14T15:23:40.862Z,63.40
2018-03-14T15:26:07.188Z,62.90
2018-03-14T15:28:33.493Z,63.50
2018-03-14T15:30:59.791Z,65.00
2018-03-14T15:33:29.697Z,64.50
2018-03-14T15:35:56.026Z,64.70
2018-03-14T15:38:24.280Z,64.60
2018-03-14T15:40:50.587Z,64.90
2018-03-14T15:43:35.452Z,64.50
2018-03-14T15:46:01.760Z,64.70
2018-03-14T15:48:28.018Z,64.90
2018-03-14T15:50:58.629Z,65.20
2018-03-14T15:53:24.945Z,65.20
2018-03-14T15:55:54.211Z,64.80
2018-03-14T15:58:20.563Z,64.80
2018-03-14T16:00:46.895Z,65.70
2018-03-14T16:03:13.261Z,65.20
2018-03-14T16:05:46.497Z,64.90
2018-03-14T16:08:14.412Z,66.20
2018-03-14T16:10:40.953Z,66.20
2018-03-14T16:13:08.859Z,67.50
2018-03-14T16:18:08.693Z,69.60
2018-03-14T16:20:41.637Z,66.50
2018-03-14T16:23:08.121Z,67.00
2018-03-14T16:25:34.573Z,67.10
2018-03-14T16:28:01.678Z,67.10
2018-03-14T16:30:28.217Z,67.10
2018-03-14T16:32:54.640Z,67.50
2018-03-14T16:35:20.969Z,67.40
2018-03-14T16:37:48.458Z,67.30
2018-03-14T16:40:14.835Z,67.30
2018-03-14T16:42:41.326Z,67.50
2018-03-14T16:45:08.754Z,66.50
2018-03-14T16:47:35.070Z,66.50
2018-03-14T16:50:05.224Z,66.40
2018-03-14T16:52:31.598Z,67.10
2018-03-14T16:54:58.106Z,67.50
2018-03-14T16:57:25.533Z,67.50
2018-03-14T16:59:52.120Z,68.30
2018-03-14T17:02:18.577Z,68.80
2018-03-14T17:04:46.073Z,68.80
2018-03-14T17:07:12.424Z,68.80
2018-03-14T17:09:38.955Z,69.20
2018-03-14T17:12:05.663Z,69.20
2018-03-14T17:14:32.066Z,68.70
2018-03-14T17:16:59.188Z,68.60
2018-03-14T17:19:25.622Z,68.50
2018-03-14T17:21:53.100Z,69.10
2018-03-14T17:24:23.151Z,69.40
2018-03-14T17:26:49.474Z,69.40
2018-03-14T17:29:17.939Z,69.90
2018-03-14T17:31:44.308Z,70.50
2018-03-14T17:34:10.647Z,70.00
2018-03-14T17:36:37.240Z,67.70
2018-03-14T17:39:08.741Z,67.60
2018-03-14T17:41:35.132Z,68.20
2018-03-14T17:44:01.506Z,68.70
2018-03-14T17:46:28.632Z,69.90
2018-03-14T17:48:54.998Z,69.80
2018-03-14T17:51:21.749Z,70.10
2018-03-14T17:53:48.094Z,70.40
2018-03-14T17:56:14.423Z,71.10
2018-03-14T17:58:42.830Z,71.10
2018-03-14T18:01:09.282Z,71.10
2018-03-14T18:03:37.003Z,72.10
2018-03-14T18:06:03.455Z,72.00
2018-03-14T18:08:29.770Z,72.30
2018-03-14T18:10:56.828Z,72.70
2018-03-14T18:13:27.767Z,72.80
2018-03-14T18:15:54.251Z,72.80
2018-03-14T18:18:20.658Z,73.00
2018-03-14T18:20:47.765Z,73.60
2018-03-14T18:23:14.282Z,73.60
2018-03-14T18:25:41.323Z,73.70
2018-03-14T18:28:07.945Z,73.80
2018-03-14T18:30:39.204Z,74.30
2018-03-14T18:33:05.590Z,74.40
2018-03-14T18:35:31.888Z,75.00
2018-03-14T18:37:58.390Z,75.40
2018-03-14T18:40:24.706Z,75.60
2018-03-14T18:42:51.039Z,76.20
2018-03-14T18:45:17.456Z,76.50
2018-03-14T18:47:56.716Z,76.90
2018-03-14T18:50:23.118Z,76.50
2018-03-14T18:52:49.440Z,76.50
2018-03-14T18:55:17.897Z,76.20
2018-03-14T18:57:44.450Z,76.40
2018-03-14T19:00:10.882Z,76.40
2018-03-14T19:02:37.233Z,76.70
2018-03-14T19:05:12.350Z,77.00
2018-03-14T19:07:38.652Z,77.20
2018-03-14T19:10:05.159Z,77.30
2018-03-14T19:12:31.522Z,77.30
2018-03-14T19:14:57.912Z,77.60
2018-03-14T19:17:24.985Z,77.70
2018-03-14T19:19:53.313Z,77.70
2018-03-14T19:22:19.706Z,77.20
2018-03-14T19:24:46.795Z,75.60
2018-03-14T19:27:13.138Z,75.50
2018-03-14T19:29:39.488Z,75.30
2018-03-14T19:32:05.882Z,75.50
2018-03-14T19:34:32.204Z,75.70
2018-03-14T19:36:58.603Z,75.60
2018-03-14T19:39:24.887Z,75.60
2018-03-14T19:41:51.284Z,75.60
2018-03-14T19:44:17.640Z,75.70
2018-03-14T19:46:44.473Z,76.10
2018-03-14T19:49:11.568Z,76.10
2018-03-14T19:51:38.075Z,75.90
2018-03-14T19:54:05.074Z,76.50
2018-03-14T19:56:31.326Z,76.40
2018-03-14T19:59:15.821Z,77.00
2018-03-14T20:01:42.168Z,77.40
2018-03-14T20:04:08.708Z,78.00
2018-03-14T20:06:34.986Z,78.10
2018-03-14T20:09:02.269Z,77.70
2018-03-14T20:11:29.377Z,77.30
2018-03-14T20:13:57.421Z,77.50
2018-03-14T20:16:23.796Z,77.50
2018-03-14T20:18:53.593Z,78.00
2018-03-14T20:21:21.066Z,77.80
2018-03-14T20:23:47.450Z,77.90
2018-03-14T20:26:14.043Z,78.10
2018-03-14T20:28:40.426Z,78.20
2018-03-14T20:31:06.770Z,77.70
2018-03-14T20:33:33.221Z,78.00
2018-03-14T20:35:59.563Z,78.10
2018-03-14T20:38:25.907Z,78.00
2018-03-14T20:40:53.615Z,78.10
2018-03-14T20:43:24.845Z,77.90
2018-03-14T20:45:54.322Z,77.90
2018-03-14T20:48:32.868Z,78.20
2018-03-14T20:51:01.227Z,78.60
2018-03-14T20:53:37.944Z,78.60
2018-03-14T20:56:04.508Z,78.60
2018-03-14T20:58:50.354Z,78.70
2018-03-14T21:01:17.372Z,78.60
2018-03-14T21:03:43.707Z,78.60
2018-03-14T21:06:10.111Z,79.00
2018-03-14T21:08:36.418Z,78.90
2018-03-14T21:11:02.677Z,78.80
2018-03-14T21:13:29.669Z,78.80
2018-03-14T21:15:55.941Z,78.80
2018-03-14T21:18:22.579Z,79.00
2018-03-14T21:20:48.885Z,78.90
2018-03-14T21:23:15.910Z,79.50
2018-03-14T21:25:42.130Z,79.40
2018-03-14T21:28:08.461Z,79.20
2018-03-14T21:30:35.412Z,79.30
2018-03-14T21:33:02.165Z,79.20
2018-03-14T21:35:38.622Z,79.10
2018-03-14T21:38:05.027Z,79.00
2018-03-14T21:40:31.323Z,79.20
2018-03-14T21:42:58.542Z,79.20
2018-03-14T21:45:24.930Z,79.40
2018-03-14T21:47:51.508Z,79.40
2018-03-14T21:50:17.769Z,79.60
2018-03-14T21:52:44.928Z,79.60
2018-03-14T21:55:26.721Z,80.30
2018-03-14T21:58:07.394Z,79.50
2018-03-14T22:00:38.084Z,79.60
2018-03-14T22:03:04.376Z,79.80
2018-03-14T22:05:34.133Z,79.80
2018-03-14T22:08:00.533Z,79.90
2018-03-14T22:10:26.809Z,79.50
2018-03-14T22:12:53.089Z,79.30
2018-03-14T22:15:26.124Z,79.50
2018-03-14T22:17:53.096Z,79.70
2018-03-14T22:20:19.390Z,79.60
2018-03-14T22:22:46.483Z,80.70
2018-03-14T22:25:12.797Z,80.00
2018-03-14T22:27:40.081Z,80.60
2018-03-14T22:30:06.457Z,80.60
2018-03-14T22:32:32.823Z,80.40
2018-03-14T22:34:59.122Z,79.80
2018-03-14T22:37:27.383Z,79.50
2018-03-14T22:40:07.426Z,79.90
2018-03-14T22:42:33.696Z,79.80
2018-03-14T22:45:24.007Z,79.60
2018-03-14T22:47:51.091Z,79.50
2018-03-14T22:50:43.915Z,79.50
2018-03-14T22:53:10.170Z,80.10
2018-03-14T22:55:37.290Z,79.00
2018-03-14T22:58:03.500Z,78.90
2018-03-14T23:00:29.853Z,79.00
2018-03-14T23:02:56.094Z,79.20
2018-03-14T23:05:22.362Z,79.20
2018-03-14T23:07:48.677Z,79.30
2018-03-14T23:10:14.994Z,79.60
2018-03-14T23:12:41.349Z,79.90
2018-03-14T23:15:07.657Z,80.60
2018-03-14T23:17:34.720Z,80.10
2018-03-14T23:20:01.157Z,80.00
2018-03-14T23:22:28.191Z,80.00
2018-03-14T23:24:54.459Z,80.00
2018-03-14T23:27:20.707Z,80.50
2018-03-14T23:29:46.957Z,80.80
2018-03-14T23:32:13.205Z,81.00
2018-03-14T23:34:42.305Z,81.10
2018-03-14T23:37:09.338Z,81.00
2018-03-14T23:39:35.639Z,81.10
2018-03-14T23:42:04.021Z,81.10
2018-03-14T23:44:30.318Z,81.20
2018-03-14T23:46:56.574Z,81.30
2018-03-14T23:49:23.590Z,81.00
2018-03-14T23:51:49.863Z,81.00
2018-03-14T23:54:20.319Z,80.90
2018-03-14T23:56:46.562Z,81.30
2018-03-14T23:59:13.572Z,82.30
